createdAt,value
2022-10-28T00:03:41.429Z,102459.09
2022-10-28T00:07:41.355Z,102465.94
2022-10-28T00:11:43.993Z,102470.00
2022-10-28T00:15:43.963Z,102474.97
2022-10-28T00:19:43.862Z,102472.34
2022-10-28T00:23:43.689Z,102464.88
2022-10-28T00:27:46.122Z,102470.38
2022-10-28T00:31:46.886Z,102475.25
2022-10-28T00:35:46.707Z,102475.22
2022-10-28T00:39:46.719Z,102469.25
2022-10-28T00:43:50.866Z,102479.34
2022-10-28T00:47:57.041Z,102473.34
2022-10-28T00:52:02.301Z,102453.63
2022-10-28T00:56:04.425Z,102474.66
2022-10-28T01:00:09.117Z,102471.16
2022-10-28T01:04:10.365Z,102466.59
2022-10-28T01:08:10.073Z,102469.31
2022-10-28T01:12:19.792Z,102467.31
2022-10-28T01:16:31.929Z,102463.25
2022-10-28T01:20:57.148Z,102468.84
2022-10-28T01:25:29.361Z,102464.38
2022-10-28T01:29:46.535Z,102465.59
2022-10-28T01:33:54.576Z,102468.28
2022-10-28T01:38:08.329Z,102465.19
2022-10-28T01:42:22.541Z,102464.69
2022-10-28T01:46:27.029Z,102469.75
2022-10-28T01:50:33.640Z,102463.16
2022-10-28T01:54:36.286Z,102467.59
2022-10-28T01:58:39.000Z,102460.69
2022-10-28T02:02:40.113Z,102452.13
2022-10-28T02:06:44.775Z,102454.94
2022-10-28T02:10:52.150Z,102459.00
2022-10-28T02:15:09.512Z,102464.47
2022-10-28T02:19:17.856Z,102465.66
2022-10-28T02:23:28.094Z,102473.91
2022-10-28T02:27:41.583Z,102473.03
2022-10-28T02:31:48.216Z,102478.91
2022-10-28T02:35:54.696Z,102465.22
2022-10-28T02:39:59.959Z,102477.25
2022-10-28T02:44:04.888Z,102475.16
2022-10-28T02:48:13.197Z,102473.19
2022-10-28T02:52:13.569Z,102476.63
2022-10-28T02:56:17.819Z,102481.53
2022-10-28T03:00:24.393Z,102479.53
2022-10-28T03:04:24.635Z,102468.16
2022-10-28T03:08:25.218Z,102477.75
2022-10-28T03:12:27.648Z,102474.06
2022-10-28T03:16:28.409Z,102477.69
2022-10-28T03:20:28.681Z,102480.75
2022-10-28T03:24:28.485Z,102485.66
2022-10-28T03:28:30.405Z,102479.44
2022-10-28T03:32:30.316Z,102480.66
2022-10-28T03:36:30.228Z,102478.22
2022-10-28T03:40:30.470Z,102470.28
2022-10-28T03:44:32.362Z,102477.97
2022-10-28T03:48:32.290Z,102477.09
2022-10-28T03:52:32.216Z,102474.81
2022-10-28T03:56:32.298Z,102475.03
2022-10-28T04:00:34.339Z,102474.72
2022-10-28T04:04:34.220Z,102478.00
2022-10-28T04:08:36.011Z,102484.00
2022-10-28T04:12:39.416Z,102486.22
2022-10-28T04:16:41.461Z,102490.81
2022-10-28T04:20:47.690Z,102481.00
2022-10-28T04:24:47.864Z,102472.09
2022-10-28T04:28:50.397Z,102493.06
2022-10-28T04:32:51.950Z,102484.25
2022-10-28T04:36:52.181Z,102491.91
2022-10-28T04:40:52.717Z,102489.94
2022-10-28T04:44:53.505Z,102495.22
2022-10-28T04:48:55.571Z,102500.88
2022-10-28T04:52:55.580Z,102496.31
2022-10-28T04:56:56.938Z,102507.31
2022-10-28T05:00:59.430Z,102512.88
2022-10-28T05:05:03.313Z,102504.38
2022-10-28T05:09:03.232Z,102505.09
2022-10-28T05:13:03.077Z,102510.06
2022-10-28T05:17:02.656Z,102516.91
2022-10-28T05:21:04.057Z,102523.94
2022-10-28T05:25:04.042Z,102531.03
2022-10-28T05:29:03.869Z,102526.03
2022-10-28T05:33:04.314Z,102524.03
2022-10-28T05:37:06.480Z,102526.66
2022-10-28T05:41:05.909Z,102533.34
2022-10-28T05:45:06.173Z,102542.84
2022-10-28T05:49:05.609Z,102534.03
2022-10-28T05:53:07.634Z,102532.38
2022-10-28T05:57:07.555Z,102550.44
2022-10-28T06:01:11.341Z,102548.31
2022-10-28T06:05:24.742Z,102547.66
2022-10-28T06:09:30.052Z,102470.97
2022-10-28T06:13:28.290Z,102540.31
2022-10-28T06:17:28.177Z,102553.03
2022-10-28T06:21:27.929Z,102550.91
2022-10-28T06:25:29.960Z,102549.66
2022-10-28T06:29:30.350Z,102546.16
2022-10-28T06:33:31.266Z,102546.31
2022-10-28T06:37:31.348Z,102553.06
2022-10-28T06:41:33.553Z,102552.84
2022-10-28T06:45:35.249Z,102562.09
2022-10-28T06:49:36.830Z,102560.94
2022-10-28T06:53:36.723Z,102555.19
2022-10-28T06:57:38.629Z,102552.56
2022-10-28T07:01:38.088Z,102538.75
2022-10-28T07:05:38.596Z,102554.84
2022-10-28T07:09:39.443Z,102519.47
2022-10-28T07:13:42.545Z,102550.44
2022-10-28T07:17:44.163Z,102541.59
2022-10-28T07:21:43.897Z,102544.13
2022-10-28T07:25:44.129Z,102544.94
2022-10-28T07:29:46.373Z,102543.16
2022-10-28T07:33:46.533Z,102539.69
2022-10-28T07:37:45.748Z,102538.88
2022-10-28T07:41:45.627Z,102535.34
2022-10-28T07:45:47.647Z,102543.25
2022-10-28T07:49:47.362Z,102547.56
2022-10-28T07:53:46.989Z,102536.19
2022-10-28T07:58:30.324Z,102537.16
2022-10-28T08:02:30.382Z,102536.22
2022-10-28T08:06:32.717Z,102536.97
2022-10-28T08:10:32.277Z,102532.63
2022-10-28T08:14:32.199Z,102536.94
2022-10-28T08:18:36.193Z,102527.19
2022-10-28T08:22:36.255Z,102532.47
2022-10-28T08:26:36.113Z,102534.16
2022-10-28T08:30:50.327Z,102535.13
2022-10-28T08:34:58.581Z,102544.03
2022-10-28T08:38:59.068Z,102542.34
2022-10-28T08:43:07.822Z,102537.09
2022-10-28T08:47:25.504Z,102538.94
2022-10-28T08:51:35.981Z,102532.78
2022-10-28T08:55:38.052Z,102531.88
2022-10-28T08:59:41.036Z,102527.41
2022-10-28T09:03:46.080Z,102529.13
2022-10-28T09:07:48.337Z,102537.91
2022-10-28T09:12:17.856Z,102529.88
2022-10-28T09:16:27.561Z,102527.81
2022-10-28T09:20:34.227Z,102523.38
2022-10-28T09:24:45.982Z,102520.38
2022-10-28T09:28:57.884Z,102516.59
2022-10-28T09:33:09.806Z,102510.88
2022-10-28T09:37:17.720Z,102511.16
2022-10-28T09:41:23.750Z,102484.63
2022-10-28T09:45:27.808Z,102488.91
2022-10-28T09:49:31.897Z,102495.09
2022-10-28T09:53:41.384Z,102474.66
2022-10-28T09:57:43.984Z,102488.84
2022-10-28T10:01:47.520Z,102482.56
2022-10-28T10:05:52.356Z,102474.06
2022-10-28T10:09:52.391Z,102477.50
2022-10-28T10:13:56.229Z,102437.16
2022-10-28T10:18:04.575Z,102470.88
2022-10-28T10:22:04.523Z,102463.78
2022-10-28T10:26:09.573Z,102464.53
2022-10-28T10:30:24.179Z,102457.78
2022-10-28T10:34:30.130Z,102426.41
2022-10-28T10:38:32.049Z,102445.00
2022-10-28T10:42:32.016Z,102437.97
2022-10-28T10:46:34.587Z,102435.41
2022-10-28T10:50:37.501Z,102412.00
2022-10-28T10:54:39.601Z,102435.34
2022-10-28T10:58:42.479Z,102421.66
2022-10-28T11:02:52.237Z,102422.78
2022-10-28T11:06:58.755Z,102423.84
2022-10-28T11:11:16.779Z,102415.75
2022-10-28T11:15:25.812Z,102422.06
2022-10-28T11:19:33.481Z,102414.59
2022-10-28T11:23:48.989Z,102372.13
2022-10-28T11:28:01.512Z,102409.22
2022-10-28T11:32:32.661Z,102387.56
2022-10-28T11:36:42.629Z,102395.38
2022-10-28T11:40:57.203Z,102397.94
2022-10-28T11:45:04.228Z,102370.38
2022-10-28T11:49:46.826Z,102366.34
2022-10-28T11:54:21.617Z,102372.66
2022-10-28T11:58:35.988Z,102368.38
2022-10-28T12:02:53.575Z,102374.78
2022-10-28T12:07:13.019Z,102372.88
2022-10-28T12:11:24.721Z,102345.59
2022-10-28T12:15:53.173Z,102350.41
2022-10-28T12:19:59.715Z,102354.78
2022-10-28T12:24:08.586Z,102344.09
2022-10-28T12:28:18.713Z,102337.44
2022-10-28T12:32:37.769Z,102339.09
2022-10-28T12:37:14.886Z,102348.66
2022-10-28T12:41:56.220Z,102325.91
2022-10-28T12:46:31.289Z,102328.28
2022-10-28T12:50:43.377Z,102318.44
2022-10-28T12:54:59.451Z,102316.13
2022-10-28T13:03:50.384Z,102316.75
2022-10-28T13:08:34.525Z,102312.25
2022-10-28T13:13:13.364Z,102317.84
2022-10-28T13:17:35.528Z,102309.72
2022-10-28T13:22:28.671Z,102314.91
2022-10-28T13:26:35.718Z,102313.44
2022-10-28T13:35:56.557Z,102317.69
2022-10-28T13:40:01.089Z,102312.13
2022-10-28T13:44:47.242Z,102283.84
2022-10-28T13:49:33.202Z,102316.44
2022-10-28T13:54:22.591Z,102308.41
2022-10-28T14:03:30.575Z,102300.50
2022-10-28T14:08:30.257Z,102290.81
2022-10-28T14:17:00.375Z,102292.13
2022-10-28T14:21:01.916Z,102292.69
2022-10-28T14:25:35.701Z,102288.00
2022-10-28T14:29:54.398Z,102286.56
2022-10-28T14:34:44.758Z,102292.13
2022-10-28T14:39:27.691Z,102290.41
2022-10-28T14:44:03.604Z,102297.78
2022-10-28T14:48:32.482Z,102295.44
2022-10-28T14:53:10.274Z,102294.66
2022-10-28T14:57:22.049Z,102283.91
2022-10-28T15:02:18.426Z,102270.81
2022-10-28T15:06:39.177Z,102293.63
2022-10-28T15:10:49.320Z,102284.72
2022-10-28T15:14:55.681Z,102283.59
2022-10-28T15:19:01.765Z,102285.16
2022-10-28T15:23:26.942Z,102267.50
2022-10-28T15:27:32.982Z,102286.63
2022-10-28T15:31:33.176Z,102292.31
2022-10-28T15:35:43.150Z,102273.03
2022-10-28T15:39:45.493Z,102294.59
2022-10-28T15:43:56.310Z,102301.16
2022-10-28T15:47:58.066Z,102309.44
2022-10-28T15:52:37.195Z,102305.28
2022-10-28T15:56:56.477Z,102299.22
2022-10-28T16:00:58.620Z,102306.47
2022-10-28T16:04:59.528Z,102296.00
2022-10-28T16:09:19.848Z,102304.81
2022-10-28T16:13:24.765Z,102295.13
2022-10-28T16:17:31.451Z,102301.31
2022-10-28T16:21:51.959Z,102307.50
2022-10-28T16:25:55.282Z,102309.28
2022-10-28T16:29:58.854Z,102311.03
2022-10-28T16:33:59.991Z,102297.78
2022-10-28T16:38:00.483Z,102314.56
2022-10-28T16:42:03.260Z,102295.13
2022-10-28T16:46:03.357Z,102303.94
2022-10-28T16:50:33.553Z,102318.97
2022-10-28T16:54:48.764Z,102318.03
2022-10-28T16:58:56.206Z,102300.31
2022-10-28T17:02:56.614Z,102318.84
2022-10-28T17:06:58.082Z,102320.56
2022-10-28T17:11:01.711Z,102316.13
2022-10-28T17:15:03.265Z,102308.16
2022-10-28T17:19:03.942Z,102315.16
2022-10-28T17:23:04.689Z,102301.94
2022-10-28T17:27:05.294Z,102312.69
2022-10-28T17:31:13.200Z,102299.50
2022-10-28T17:35:14.099Z,102298.66
2022-10-28T17:39:18.590Z,102295.13
2022-10-28T17:43:21.572Z,102309.19
2022-10-28T17:47:24.820Z,102311.81
2022-10-28T17:51:24.937Z,102308.22
2022-10-28T17:55:24.476Z,102309.84
2022-10-28T17:59:24.655Z,102315.03
2022-10-28T18:03:27.609Z,102310.44
2022-10-28T18:07:27.580Z,102288.19
2022-10-28T18:11:27.557Z,102311.16
2022-10-28T18:15:27.738Z,102292.66
2022-10-28T18:19:30.346Z,102296.28
2022-10-28T18:23:30.357Z,102285.59
2022-10-28T18:27:31.480Z,102288.41
2022-10-28T18:31:34.475Z,102247.78
2022-10-28T18:35:37.315Z,102293.63
2022-10-28T18:39:38.022Z,102289.16
2022-10-28T18:43:38.984Z,102297.09
2022-10-28T18:47:39.180Z,102293.72
2022-10-28T18:51:54.516Z,102283.03
2022-10-28T18:56:08.400Z,102302.41
2022-10-28T19:00:17.805Z,102307.84
2022-10-28T19:04:19.224Z,102301.78
2022-10-28T19:08:22.062Z,102298.09
2022-10-28T19:12:30.599Z,102306.44
2022-10-28T19:16:55.250Z,102308.53
2022-10-28T19:20:57.263Z,102313.88
2022-10-28T19:24:59.949Z,102315.97
2022-10-28T19:29:03.254Z,102318.66
2022-10-28T19:33:03.953Z,102311.44
2022-10-28T19:37:06.174Z,102313.19
2022-10-28T19:41:11.068Z,102312.91
2022-10-28T19:45:13.162Z,102323.56
2022-10-28T19:49:18.571Z,102323.56
2022-10-28T19:53:20.721Z,102329.34
2022-10-28T19:57:23.413Z,102325.66
2022-10-28T20:01:26.828Z,102331.94
2022-10-28T20:05:29.815Z,102279.31
2022-10-28T20:09:29.869Z,102320.38
2022-10-28T20:13:36.732Z,102325.06
2022-10-28T20:17:37.678Z,102318.50
2022-10-28T20:21:38.974Z,102309.56
2022-10-28T20:25:40.058Z,102331.56
2022-10-28T20:29:43.670Z,102339.63
2022-10-28T20:33:46.039Z,102329.78
2022-10-28T20:37:49.834Z,102339.34
2022-10-28T20:41:51.666Z,102329.63
2022-10-28T20:46:05.726Z,102334.75
2022-10-28T20:50:07.172Z,102319.44
2022-10-28T20:54:08.131Z,102336.22
2022-10-28T20:58:40.109Z,102314.06
2022-10-28T21:02:43.086Z,102324.19
2022-10-28T21:06:45.142Z,102329.31
2022-10-28T21:10:48.385Z,102321.03
2022-10-28T21:14:53.389Z,102321.72
2022-10-28T21:18:58.881Z,102300.63
2022-10-28T21:23:02.084Z,102321.41
2022-10-28T21:27:02.070Z,102318.44
2022-10-28T21:31:02.929Z,102307.47
2022-10-28T21:35:05.508Z,102319.81
2022-10-28T21:39:05.774Z,102321.47
2022-10-28T21:43:06.709Z,102319.22
2022-10-28T21:47:07.367Z,102316.44
2022-10-28T21:51:13.627Z,102308.09
2022-10-28T21:55:20.292Z,102311.59
2022-10-28T21:59:21.345Z,102319.78
2022-10-28T22:03:21.222Z,102315.50
2022-10-28T22:07:23.436Z,102313.56
2022-10-28T22:11:24.819Z,102314.66
2022-10-28T22:15:25.254Z,102310.41
2022-10-28T22:19:25.478Z,102308.56
2022-10-28T22:23:27.796Z,102301.34
2022-10-28T22:27:28.305Z,102308.47
2022-10-28T22:31:31.191Z,102306.38
2022-10-28T22:35:31.534Z,102298.09
2022-10-28T22:39:34.112Z,102301.91
2022-10-28T22:43:34.653Z,102299.22
2022-10-28T22:47:34.693Z,102299.59
2022-10-28T22:51:35.492Z,102294.63
2022-10-28T22:55:38.010Z,102292.31
2022-10-28T22:59:38.770Z,102245.41
2022-10-28T23:03:40.322Z,102292.91
2022-10-28T23:07:40.657Z,102285.59
2022-10-28T23:11:43.551Z,102287.75
2022-10-28T23:15:43.579Z,102281.75
2022-10-28T23:19:45.861Z,102280.31
2022-10-28T23:23:51.205Z,102272.72
2022-10-28T23:27:56.856Z,102280.84
2022-10-28T23:31:57.201Z,102277.59
2022-10-28T23:35:57.851Z,102276.72
2022-10-28T23:40:01.228Z,102250.63
2022-10-28T23:44:04.257Z,102268.34
2022-10-28T23:48:04.587Z,102271.59
2022-10-28T23:52:05.022Z,102273.53
2022-10-28T23:56:05.365Z,102277.84
